createdAt,value
2023-02-19T00:03:13.145Z,12.16
2023-02-19T00:07:19.566Z,12.19
2023-02-19T00:11:36.807Z,12.16
2023-02-19T00:15:44.547Z,12.27
2023-02-19T00:20:03.999Z,12.40
2023-02-19T00:24:05.467Z,12.46
2023-02-19T00:28:08.095Z,12.56
2023-02-19T00:32:17.910Z,12.61
2023-02-19T00:36:23.574Z,12.66
2023-02-19T00:40:26.151Z,12.67
2023-02-19T00:44:38.271Z,12.69
2023-02-19T00:48:40.080Z,12.70
2023-02-19T00:52:45.590Z,12.70
2023-02-19T00:56:49.204Z,12.77
2023-02-19T01:00:53.882Z,12.72
2023-02-19T01:04:56.748Z,12.76
2023-02-19T01:09:00.964Z,12.74
2023-02-19T01:13:13.887Z,12.79
2023-02-19T01:22:06.369Z,12.72
2023-02-19T01:26:16.122Z,12.74
2023-02-19T01:30:16.601Z,12.70
2023-02-19T01:34:20.890Z,12.64
2023-02-19T01:38:25.219Z,12.56
2023-02-19T01:42:30.321Z,12.53
2023-02-19T01:46:34.827Z,12.48
2023-02-19T01:50:37.080Z,12.30
2023-02-19T01:54:44.563Z,12.23
2023-02-19T01:58:54.698Z,12.12
2023-02-19T02:02:59.179Z,12.05
2023-02-19T02:07:26.548Z,11.92
2023-02-19T02:11:46.947Z,11.87
2023-02-19T02:15:53.434Z,11.73
2023-02-19T02:20:10.672Z,11.64
2023-02-19T02:24:18.985Z,11.60
2023-02-19T02:28:31.356Z,11.51
2023-02-19T02:32:41.269Z,11.50
2023-02-19T02:37:01.675Z,11.53
2023-02-19T02:41:06.377Z,11.49
2023-02-19T02:45:40.349Z,11.50
2023-02-19T02:50:05.749Z,11.47
2023-02-19T02:54:26.827Z,11.39
2023-02-19T02:58:32.012Z,11.30
2023-02-19T03:02:35.587Z,11.19
2023-02-19T03:06:45.184Z,11.18
2023-02-19T03:10:47.215Z,11.05
2023-02-19T03:15:05.284Z,10.99
2023-02-19T03:19:25.920Z,10.94
2023-02-19T03:27:59.822Z,10.90
2023-02-19T03:32:08.123Z,10.85
2023-02-19T03:36:15.955Z,10.75
2023-02-19T03:40:29.436Z,10.72
2023-02-19T03:44:39.393Z,10.61
2023-02-19T03:49:01.274Z,10.53
2023-02-19T03:53:09.457Z,10.45
2023-02-19T03:57:24.854Z,10.54
2023-02-19T04:01:30.372Z,10.46
2023-02-19T04:05:34.119Z,10.45
2023-02-19T04:09:41.928Z,10.40
2023-02-19T04:13:54.354Z,10.34
2023-02-19T04:18:01.141Z,10.29
2023-02-19T04:22:09.356Z,10.18
2023-02-19T04:26:13.584Z,10.17
2023-02-19T04:30:20.234Z,10.08
2023-02-19T04:34:33.641Z,10.08
2023-02-19T04:38:41.002Z,10.06
2023-02-19T04:42:42.664Z,10.01
2023-02-19T04:46:45.713Z,10.02
2023-02-19T04:51:03.302Z,10.05
2023-02-19T04:55:12.616Z,10.00
2023-02-19T04:59:15.950Z,10.00
2023-02-19T05:03:18.332Z,10.01
2023-02-19T05:07:19.179Z,9.87
2023-02-19T05:11:21.152Z,9.81
2023-02-19T05:15:24.866Z,9.68
2023-02-19T05:19:58.690Z,9.58
2023-02-19T05:24:02.606Z,9.55
2023-02-19T05:28:19.645Z,9.41
2023-02-19T05:32:20.741Z,9.34
2023-02-19T05:36:24.500Z,9.37
2023-02-19T05:40:32.188Z,9.37
2023-02-19T05:44:32.744Z,9.44
2023-02-19T05:48:34.731Z,9.45
2023-02-19T05:52:35.872Z,9.53
2023-02-19T05:56:39.170Z,9.54
2023-02-19T06:00:48.603Z,9.47
2023-02-19T06:04:48.999Z,9.39
2023-02-19T06:09:04.408Z,9.35
2023-02-19T06:13:08.449Z,9.27
2023-02-19T06:17:09.532Z,9.37
2023-02-19T06:21:18.070Z,9.47
2023-02-19T06:25:24.121Z,9.45
2023-02-19T06:29:30.188Z,9.61
2023-02-19T06:33:34.518Z,9.72
2023-02-19T06:37:38.234Z,9.91
2023-02-19T06:41:44.306Z,10.06
2023-02-19T06:45:50.273Z,10.11
2023-02-19T06:49:57.882Z,10.17
2023-02-19T06:54:02.088Z,10.23
2023-02-19T06:58:03.467Z,10.49
2023-02-19T07:02:07.584Z,10.66
2023-02-19T07:06:09.558Z,10.91
2023-02-19T07:10:23.510Z,10.88
2023-02-19T07:14:33.163Z,11.01
2023-02-19T07:18:39.186Z,11.19
2023-02-19T07:22:41.699Z,11.43
2023-02-19T07:35:57.377Z,12.30
2023-02-19T07:40:16.444Z,12.24
2023-02-19T07:44:19.582Z,12.44
2023-02-19T07:48:21.417Z,12.54
2023-02-19T07:52:45.923Z,12.85
2023-02-19T07:56:58.338Z,13.06
2023-02-19T08:01:17.389Z,13.12
2023-02-19T08:05:31.472Z,13.30
2023-02-19T08:10:17.788Z,13.39
2023-02-19T08:14:32.322Z,13.59
2023-02-19T08:19:19.689Z,13.43
2023-02-19T08:35:53.192Z,13.86
2023-02-19T09:07:03.726Z,14.33
2023-02-19T09:12:31.713Z,14.48
2023-02-19T09:17:40.564Z,14.34
2023-02-19T09:22:17.501Z,14.40
2023-02-19T09:26:25.698Z,14.57
2023-02-19T09:30:32.632Z,14.66
2023-02-19T09:34:57.853Z,14.83
2023-02-19T09:39:06.518Z,15.07
2023-02-19T09:43:23.338Z,15.36
2023-02-19T09:47:36.616Z,15.30
2023-02-19T09:51:50.766Z,15.23
2023-02-19T09:56:08.298Z,15.38
2023-02-19T10:05:15.330Z,15.61
2023-02-19T10:09:38.444Z,15.77
2023-02-19T10:14:26.923Z,15.98
2023-02-19T10:18:37.596Z,16.15
2023-02-19T10:23:28.312Z,16.53
2023-02-19T10:27:36.737Z,16.51
2023-02-19T10:31:38.542Z,16.38
2023-02-19T10:36:17.162Z,16.65
2023-02-19T10:40:24.031Z,16.65
2023-02-19T10:44:40.410Z,16.67
2023-02-19T10:48:55.072Z,17.02
2023-02-19T10:53:01.381Z,17.07
2023-02-19T10:57:25.886Z,17.31
2023-02-19T11:01:29.722Z,17.31
2023-02-19T11:05:52.858Z,17.17
2023-02-19T11:10:21.890Z,17.38
2023-02-19T11:14:41.671Z,17.30
2023-02-19T11:18:48.332Z,17.27
2023-02-19T11:23:12.773Z,17.38
2023-02-19T11:32:52.382Z,17.18
2023-02-19T11:37:24.182Z,17.26
2023-02-19T11:42:07.408Z,17.24
2023-02-19T11:46:47.804Z,17.02
2023-02-19T11:51:36.704Z,16.99
2023-02-19T11:56:05.679Z,16.94
2023-02-19T12:00:21.651Z,16.95
2023-02-19T12:05:23.163Z,16.99
2023-02-19T12:09:39.615Z,17.18
2023-02-19T12:14:04.401Z,17.23
2023-02-19T12:18:34.720Z,17.27
2023-02-19T12:22:53.640Z,17.32
2023-02-19T12:32:12.194Z,17.28
2023-02-19T12:36:38.617Z,17.37
2023-02-19T12:40:55.433Z,17.64
2023-02-19T12:50:29.830Z,17.80
2023-02-19T12:55:07.239Z,17.77
2023-02-19T12:59:52.494Z,17.66
2023-02-19T13:04:18.583Z,17.89
2023-02-19T13:08:25.877Z,18.03
2023-02-19T13:12:45.548Z,17.69
2023-02-19T13:17:01.511Z,17.83
2023-02-19T13:21:07.351Z,17.61
2023-02-19T13:25:34.793Z,17.65
2023-02-19T13:34:54.309Z,17.69
2023-02-19T13:43:29.013Z,17.79
2023-02-19T13:48:17.233Z,17.88
2023-02-19T13:53:39.388Z,18.03
2023-02-19T14:04:21.953Z,18.05
2023-02-19T14:09:14.509Z,17.84
2023-02-19T14:23:55.526Z,17.58
2023-02-19T14:28:43.166Z,17.46
2023-02-19T14:33:19.540Z,17.51
2023-02-19T14:37:30.571Z,17.49
2023-02-19T14:41:45.344Z,17.49
2023-02-19T14:46:11.215Z,17.49
2023-02-19T14:50:52.080Z,17.45
2023-02-19T14:55:39.140Z,17.38
2023-02-19T14:59:58.536Z,17.27
2023-02-19T15:04:22.576Z,17.22
2023-02-19T15:08:41.980Z,17.14
2023-02-19T15:13:09.013Z,17.24
2023-02-19T15:17:26.593Z,17.26
2023-02-19T15:21:58.315Z,17.32
2023-02-19T15:26:04.285Z,17.23
2023-02-19T15:30:21.701Z,16.98
2023-02-19T15:34:37.326Z,16.81
2023-02-19T15:38:42.109Z,16.73
2023-02-19T15:42:52.897Z,16.63
2023-02-19T15:46:59.821Z,16.61
2023-02-19T15:51:11.465Z,16.56
2023-02-19T16:00:18.744Z,16.49
2023-02-19T16:04:26.974Z,16.41
2023-02-19T16:08:42.218Z,16.36
2023-02-19T16:18:20.878Z,16.32
2023-02-19T16:23:07.206Z,16.32
2023-02-19T16:33:03.437Z,16.40
2023-02-19T16:37:55.113Z,16.41
2023-02-19T16:43:03.286Z,16.41
2023-02-19T16:47:35.937Z,16.28
2023-02-19T16:56:58.108Z,16.27
2023-02-19T17:01:53.231Z,16.13
2023-02-19T17:06:23.774Z,16.16
2023-02-19T17:10:56.597Z,16.17
2023-02-19T17:31:45.281Z,15.90
2023-02-19T17:36:52.236Z,15.86
2023-02-19T17:42:02.925Z,15.91
2023-02-19T17:47:10.450Z,15.79
2023-02-19T17:52:11.461Z,15.63
2023-02-19T18:23:17.029Z,15.61
2023-02-19T18:27:26.370Z,15.38
2023-02-19T18:32:05.350Z,15.34
2023-02-19T18:36:19.160Z,15.51
2023-02-19T18:45:45.888Z,15.47
2023-02-19T18:50:11.229Z,15.36
2023-02-19T18:54:45.309Z,15.36
2023-02-19T18:59:04.129Z,15.26
2023-02-19T19:03:43.059Z,15.14
2023-02-19T19:08:14.071Z,15.03
2023-02-19T19:12:35.796Z,14.97
2023-02-19T19:17:08.390Z,14.76
2023-02-19T19:21:29.197Z,14.78
2023-02-19T19:25:37.009Z,14.75
2023-02-19T19:30:04.975Z,14.67
2023-02-19T19:34:45.247Z,14.50
2023-02-19T19:39:04.051Z,14.46
2023-02-19T19:44:07.703Z,14.52
2023-02-19T19:48:36.685Z,14.56
2023-02-19T19:53:09.906Z,14.54
2023-02-19T19:57:31.216Z,14.49
2023-02-19T20:01:40.522Z,14.49
2023-02-19T20:06:18.378Z,14.52
2023-02-19T20:11:06.199Z,14.56
2023-02-19T20:15:36.563Z,14.40
2023-02-19T20:19:47.512Z,14.37
2023-02-19T20:24:26.179Z,14.38
2023-02-19T20:28:36.549Z,14.30
2023-02-19T20:33:01.331Z,14.26
2023-02-19T20:37:07.756Z,14.37
2023-02-19T20:41:26.708Z,14.36
2023-02-19T20:45:47.697Z,14.24
2023-02-19T20:50:02.463Z,14.31
2023-02-19T20:54:12.840Z,14.26
2023-02-19T20:58:31.875Z,14.24
2023-02-19T21:02:34.341Z,14.22
2023-02-19T21:06:42.298Z,14.25
2023-02-19T21:11:18.437Z,14.21
2023-02-19T21:15:27.855Z,14.12
2023-02-19T21:19:33.336Z,14.00
2023-02-19T21:23:57.483Z,14.00
2023-02-19T21:28:36.506Z,13.99
2023-02-19T21:32:56.321Z,14.00
2023-02-19T21:37:18.245Z,13.90
2023-02-19T21:41:53.906Z,13.84
2023-02-19T21:45:55.951Z,13.75
2023-02-19T21:50:20.642Z,13.62
2023-02-19T21:58:59.715Z,13.49
2023-02-19T22:03:03.630Z,13.43
2023-02-19T22:07:03.834Z,13.21
2023-02-19T22:11:07.376Z,13.13
2023-02-19T22:15:29.980Z,13.18
2023-02-19T22:19:44.761Z,13.11
2023-02-19T22:23:55.256Z,13.07
2023-02-19T22:28:00.768Z,12.88
2023-02-19T22:32:25.988Z,12.97
2023-02-19T22:36:52.027Z,12.85
2023-02-19T22:41:26.433Z,12.86
2023-02-19T22:45:45.486Z,12.85
2023-02-19T22:49:48.122Z,12.87
2023-02-19T22:53:56.757Z,12.77
2023-02-19T22:58:19.306Z,12.73
2023-02-19T23:02:22.159Z,12.58
2023-02-19T23:06:29.217Z,12.48
2023-02-19T23:10:51.413Z,12.35
2023-02-19T23:14:57.383Z,12.26
2023-02-19T23:19:15.335Z,12.26
2023-02-19T23:23:28.956Z,12.19
2023-02-19T23:27:32.069Z,12.21
2023-02-19T23:31:37.778Z,12.16
2023-02-19T23:35:39.462Z,12.09
2023-02-19T23:39:42.113Z,12.02
2023-02-19T23:43:53.480Z,12.05
2023-02-19T23:47:54.532Z,11.90
2023-02-19T23:51:55.171Z,11.79
2023-02-19T23:55:57.892Z,11.65
